sensor_id;sensor_type;location;lat;lon;timestamp;P1;durP1;ratioP1;P2;durP2;ratioP2
21959;SDS011;11144;43.030;25.108;2023-04-24T00:01:29;7.85;;;4.18;;
21959;SDS011;11144;43.030;25.108;2023-04-24T00:03:04;7.63;;;3.70;;
21959;SDS011;11144;43.030;25.108;2023-04-24T00:04:38;5.78;;;3.78;;
21959;SDS011;11144;43.030;25.108;2023-04-24T00:06:12;10.15;;;4.20;;
21959;SDS011;11144;43.030;25.108;2023-04-24T00:07:45;7.28;;;4.38;;
21959;SDS011;11144;43.030;25.108;2023-04-24T00:09:19;8.75;;;4.47;;
21959;SDS011;11144;43.030;25.108;2023-04-24T00:10:52;8.63;;;4.90;;
21959;SDS011;11144;43.030;25.108;2023-04-24T00:12:26;10.27;;;5.28;;
21959;SDS011;11144;43.030;25.108;2023-04-24T00:13:59;11.10;;;5.72;;
21959;SDS011;11144;43.030;25.108;2023-04-24T00:15:33;13.40;;;5.97;;
21959;SDS011;11144;43.030;25.108;2023-04-24T00:17:06;17.05;;;5.53;;
21959;SDS011;11144;43.030;25.108;2023-04-24T00:18:40;15.27;;;5.45;;
21959;SDS011;11144;43.030;25.108;2023-04-24T00:20:13;13.50;;;5.18;;
21959;SDS011;11144;43.030;25.108;2023-04-24T00:21:47;13.73;;;5.95;;
21959;SDS011;11144;43.030;25.108;2023-04-24T00:23:21;15.15;;;6.15;;
21959;SDS011;11144;43.030;25.108;2023-04-24T00:24:55;20.52;;;7.28;;
21959;SDS011;11144;43.030;25.108;2023-04-24T00:26:28;13.07;;;7.03;;
21959;SDS011;11144;43.030;25.108;2023-04-24T00:28:01;9.73;;;4.85;;
21959;SDS011;11144;43.030;25.108;2023-04-24T00:29:34;9.98;;;4.85;;
21959;SDS011;11144;43.030;25.108;2023-04-24T00:31:08;6.90;;;3.97;;
21959;SDS011;11144;43.030;25.108;2023-04-24T00:32:41;10.45;;;4.40;;
21959;SDS011;11144;43.030;25.108;2023-04-24T00:34:16;7.40;;;3.92;;
21959;SDS011;11144;43.030;25.108;2023-04-24T00:35:50;14.30;;;5.50;;
21959;SDS011;11144;43.030;25.108;2023-04-24T00:37:23;8.23;;;5.07;;
21959;SDS011;11144;43.030;25.108;2023-04-24T00:38:56;8.85;;;4.53;;
21959;SDS011;11144;43.030;25.108;2023-04-24T00:40:30;11.02;;;4.55;;
21959;SDS011;11144;43.030;25.108;2023-04-24T00:42:03;10.13;;;4.35;;
21959;SDS011;11144;43.030;25.108;2023-04-24T00:43:37;10.43;;;4.43;;
21959;SDS011;11144;43.030;25.108;2023-04-24T00:45:12;8.55;;;3.92;;
21959;SDS011;11144;43.030;25.108;2023-04-24T00:46:44;8.75;;;4.32;;
21959;SDS011;11144;43.030;25.108;2023-04-24T00:48:23;6.40;;;3.83;;
21959;SDS011;11144;43.030;25.108;2023-04-24T00:49:59;8.55;;;4.85;;
21959;SDS011;11144;43.030;25.108;2023-04-24T00:51:34;6.55;;;3.70;;
21959;SDS011;11144;43.030;25.108;2023-04-24T00:53:08;7.53;;;3.92;;
21959;SDS011;11144;43.030;25.108;2023-04-24T00:54:42;10.27;;;3.83;;
21959;SDS011;11144;43.030;25.108;2023-04-24T00:56:15;8.02;;;3.83;;
21959;SDS011;11144;43.030;25.108;2023-04-24T00:57:48;7.50;;;4.05;;
21959;SDS011;11144;43.030;25.108;2023-04-24T00:59:22;7.20;;;3.75;;
21959;SDS011;11144;43.030;25.108;2023-04-24T01:00:55;6.82;;;4.35;;
21959;SDS011;11144;43.030;25.108;2023-04-24T01:02:29;7.03;;;3.50;;
21959;SDS011;11144;43.030;25.108;2023-04-24T01:04:02;6.28;;;3.63;;
21959;SDS011;11144;43.030;25.108;2023-04-24T01:05:38;9.82;;;4.15;;
21959;SDS011;11144;43.030;25.108;2023-04-24T01:07:11;8.70;;;4.10;;
21959;SDS011;11144;43.030;25.108;2023-04-24T01:08:44;6.28;;;3.65;;
21959;SDS011;11144;43.030;25.108;2023-04-24T01:10:19;4.95;;;3.38;;
21959;SDS011;11144;43.030;25.108;2023-04-24T01:11:52;7.65;;;3.92;;
21959;SDS011;11144;43.030;25.108;2023-04-24T01:13:26;5.78;;;3.70;;
21959;SDS011;11144;43.030;25.108;2023-04-24T01:15:00;8.52;;;3.72;;
21959;SDS011;11144;43.030;25.108;2023-04-24T01:16:32;7.32;;;3.75;;
21959;SDS011;11144;43.030;25.108;2023-04-24T01:18:06;7.82;;;3.70;;
21959;SDS011;11144;43.030;25.108;2023-04-24T01:19:39;7.65;;;3.75;;
21959;SDS011;11144;43.030;25.108;2023-04-24T01:21:14;4.68;;;2.85;;
21959;SDS011;11144;43.030;25.108;2023-04-24T01:22:50;5.40;;;2.80;;
21959;SDS011;11144;43.030;25.108;2023-04-24T01:24:26;6.78;;;3.42;;
21959;SDS011;11144;43.030;25.108;2023-04-24T01:26:01;5.43;;;3.00;;
21959;SDS011;11144;43.030;25.108;2023-04-24T01:27:34;5.55;;;3.15;;
21959;SDS011;11144;43.030;25.108;2023-04-24T01:29:08;7.00;;;3.63;;
21959;SDS011;11144;43.030;25.108;2023-04-24T01:30:42;6.40;;;3.72;;
21959;SDS011;11144;43.030;25.108;2023-04-24T01:32:16;7.88;;;3.70;;
21959;SDS011;11144;43.030;25.108;2023-04-24T01:33:50;5.45;;;3.45;;
21959;SDS011;11144;43.030;25.108;2023-04-24T01:35:24;6.20;;;3.17;;
21959;SDS011;11144;43.030;25.108;2023-04-24T01:36:57;6.97;;;3.38;;
21959;SDS011;11144;43.030;25.108;2023-04-24T01:38:31;5.78;;;3.45;;
21959;SDS011;11144;43.030;25.108;2023-04-24T01:40:05;6.40;;;3.55;;
21959;SDS011;11144;43.030;25.108;2023-04-24T01:41:38;6.47;;;3.55;;
21959;SDS011;11144;43.030;25.108;2023-04-24T01:43:12;6.65;;;3.00;;
21959;SDS011;11144;43.030;25.108;2023-04-24T01:44:45;6.97;;;3.78;;
21959;SDS011;11144;43.030;25.108;2023-04-24T01:46:18;9.05;;;3.83;;
21959;SDS011;11144;43.030;25.108;2023-04-24T01:47:51;8.93;;;4.43;;
21959;SDS011;11144;43.030;25.108;2023-04-24T01:49:25;6.55;;;3.55;;
21959;SDS011;11144;43.030;25.108;2023-04-24T01:50:57;5.97;;;3.15;;
21959;SDS011;11144;43.030;25.108;2023-04-24T01:52:31;7.47;;;3.85;;
21959;SDS011;11144;43.030;25.108;2023-04-24T01:54:08;9.57;;;3.95;;
21959;SDS011;11144;43.030;25.108;2023-04-24T01:55:41;9.30;;;4.50;;
21959;SDS011;11144;43.030;25.108;2023-04-24T01:57:13;9.95;;;4.53;;
21959;SDS011;11144;43.030;25.108;2023-04-24T01:58:47;8.48;;;4.53;;
21959;SDS011;11144;43.030;25.108;2023-04-24T02:00:20;8.48;;;5.03;;
21959;SDS011;11144;43.030;25.108;2023-04-24T02:01:56;10.70;;;5.32;;
21959;SDS011;11144;43.030;25.108;2023-04-24T02:03:28;15.05;;;4.72;;
21959;SDS011;11144;43.030;25.108;2023-04-24T02:05:03;12.30;;;5.05;;
21959;SDS011;11144;43.030;25.108;2023-04-24T02:06:40;18.67;;;5.15;;
21959;SDS011;11144;43.030;25.108;2023-04-24T02:08:13;13.48;;;5.35;;
21959;SDS011;11144;43.030;25.108;2023-04-24T02:09:48;18.38;;;6.35;;
21959;SDS011;11144;43.030;25.108;2023-04-24T02:11:21;12.88;;;5.25;;
21959;SDS011;11144;43.030;25.108;2023-04-24T02:12:55;10.95;;;4.78;;
21959;SDS011;11144;43.030;25.108;2023-04-24T02:14:28;11.50;;;4.78;;
21959;SDS011;11144;43.030;25.108;2023-04-24T02:16:02;8.73;;;4.75;;
21959;SDS011;11144;43.030;25.108;2023-04-24T02:17:35;14.88;;;5.07;;
21959;SDS011;11144;43.030;25.108;2023-04-24T02:19:09;13.23;;;5.05;;
21959;SDS011;11144;43.030;25.108;2023-04-24T02:20:42;11.18;;;4.65;;
21959;SDS011;11144;43.030;25.108;2023-04-24T02:22:15;8.02;;;4.35;;
21959;SDS011;11144;43.030;25.108;2023-04-24T02:23:49;9.48;;;4.43;;
21959;SDS011;11144;43.030;25.108;2023-04-24T02:25:23;8.10;;;4.03;;
21959;SDS011;11144;43.030;25.108;2023-04-24T02:26:59;7.35;;;4.60;;
21959;SDS011;11144;43.030;25.108;2023-04-24T02:28:34;5.47;;;3.22;;
21959;SDS011;11144;43.030;25.108;2023-04-24T02:30:08;6.20;;;3.58;;
21959;SDS011;11144;43.030;25.108;2023-04-24T02:31:42;7.15;;;4.00;;
21959;SDS011;11144;43.030;25.108;2023-04-24T02:33:18;11.90;;;5.25;;
21959;SDS011;11144;43.030;25.108;2023-04-24T02:34:52;9.38;;;4.22;;
21959;SDS011;11144;43.030;25.108;2023-04-24T02:36:25;9.60;;;3.42;;
21959;SDS011;11144;43.030;25.108;2023-04-24T02:37:59;5.35;;;3.42;;
21959;SDS011;11144;43.030;25.108;2023-04-24T02:39:31;9.15;;;4.20;;
21959;SDS011;11144;43.030;25.108;2023-04-24T02:41:06;13.18;;;6.35;;
21959;SDS011;11144;43.030;25.108;2023-04-24T02:42:39;24.75;;;11.98;;
21959;SDS011;11144;43.030;25.108;2023-04-24T02:44:11;8.57;;;4.78;;
21959;SDS011;11144;43.030;25.108;2023-04-24T02:45:45;6.28;;;3.45;;
21959;SDS011;11144;43.030;25.108;2023-04-24T02:47:19;10.30;;;4.43;;
21959;SDS011;11144;43.030;25.108;2023-04-24T02:48:53;7.95;;;4.90;;
21959;SDS011;11144;43.030;25.108;2023-04-24T02:50:29;7.65;;;4.25;;
21959;SDS011;11144;43.030;25.108;2023-04-24T02:52:01;8.77;;;3.63;;
21959;SDS011;11144;43.030;25.108;2023-04-24T02:53:35;9.68;;;4.25;;
21959;SDS011;11144;43.030;25.108;2023-04-24T02:55:08;6.82;;;3.70;;
21959;SDS011;11144;43.030;25.108;2023-04-24T02:56:43;13.05;;;4.45;;
21959;SDS011;11144;43.030;25.108;2023-04-24T02:58:17;9.43;;;4.53;;
21959;SDS011;11144;43.030;25.108;2023-04-24T02:59:51;12.90;;;5.40;;
21959;SDS011;11144;43.030;25.108;2023-04-24T03:01:26;12.05;;;5.35;;
21959;SDS011;11144;43.030;25.108;2023-04-24T03:02:59;9.65;;;4.93;;
21959;SDS011;11144;43.030;25.108;2023-04-24T03:04:34;9.65;;;4.80;;
21959;SDS011;11144;43.030;25.108;2023-04-24T03:06:08;8.43;;;4.47;;
21959;SDS011;11144;43.030;25.108;2023-04-24T03:07:41;8.48;;;4.55;;
21959;SDS011;11144;43.030;25.108;2023-04-24T03:09:14;13.52;;;4.47;;
21959;SDS011;11144;43.030;25.108;2023-04-24T03:10:47;13.52;;;6.75;;
21959;SDS011;11144;43.030;25.108;2023-04-24T03:12:23;7.25;;;4.45;;
21959;SDS011;11144;43.030;25.108;2023-04-24T03:13:56;7.70;;;4.50;;
21959;SDS011;11144;43.030;25.108;2023-04-24T03:15:29;8.95;;;4.68;;
21959;SDS011;11144;43.030;25.108;2023-04-24T03:17:02;9.25;;;4.93;;
21959;SDS011;11144;43.030;25.108;2023-04-24T03:18:35;7.93;;;4.63;;
21959;SDS011;11144;43.030;25.108;2023-04-24T03:20:10;9.63;;;5.00;;
21959;SDS011;11144;43.030;25.108;2023-04-24T03:21:43;10.40;;;4.95;;
21959;SDS011;11144;43.030;25.108;2023-04-24T03:23:17;47.95;;;22.00;;
21959;SDS011;11144;43.030;25.108;2023-04-24T03:24:51;68.00;;;33.05;;
21959;SDS011;11144;43.030;25.108;2023-04-24T03:26:26;19.95;;;10.23;;
21959;SDS011;11144;43.030;25.108;2023-04-24T03:28:12;13.10;;;5.55;;
21959;SDS011;11144;43.030;25.108;2023-04-24T03:29:53;7.15;;;4.25;;
21959;SDS011;11144;43.030;25.108;2023-04-24T03:31:34;6.93;;;4.90;;
21959;SDS011;11144;43.030;25.108;2023-04-24T03:33:08;9.55;;;4.57;;
21959;SDS011;11144;43.030;25.108;2023-04-24T03:34:48;10.25;;;4.78;;
21959;SDS011;11144;43.030;25.108;2023-04-24T03:36:21;6.85;;;4.10;;
21959;SDS011;11144;43.030;25.108;2023-04-24T03:37:55;9.60;;;4.78;;
21959;SDS011;11144;43.030;25.108;2023-04-24T03:39:47;9.57;;;6.65;;
21959;SDS011;11144;43.030;25.108;2023-04-24T03:41:25;12.00;;;6.70;;
21959;SDS011;11144;43.030;25.108;2023-04-24T03:43:06;11.13;;;5.30;;
21959;SDS011;11144;43.030;25.108;2023-04-24T03:44:40;8.85;;;5.28;;
21959;SDS011;11144;43.030;25.108;2023-04-24T03:46:13;12.38;;;6.78;;
21959;SDS011;11144;43.030;25.108;2023-04-24T03:47:56;14.02;;;7.13;;
21959;SDS011;11144;43.030;25.108;2023-04-24T03:49:29;11.68;;;6.25;;
21959;SDS011;11144;43.030;25.108;2023-04-24T03:51:03;8.23;;;5.38;;
21959;SDS011;11144;43.030;25.108;2023-04-24T03:52:38;9.90;;;5.65;;
21959;SDS011;11144;43.030;25.108;2023-04-24T03:54:12;12.90;;;6.18;;
21959;SDS011;11144;43.030;25.108;2023-04-24T03:55:45;12.80;;;7.00;;
21959;SDS011;11144;43.030;25.108;2023-04-24T03:57:19;10.40;;;5.88;;
21959;SDS011;11144;43.030;25.108;2023-04-24T03:59:05;8.95;;;5.03;;
21959;SDS011;11144;43.030;25.108;2023-04-24T04:00:41;6.93;;;4.22;;
21959;SDS011;11144;43.030;25.108;2023-04-24T04:02:36;9.15;;;4.07;;
21959;SDS011;11144;43.030;25.108;2023-04-24T04:04:10;6.63;;;4.03;;
21959;SDS011;11144;43.030;25.108;2023-04-24T04:05:43;9.43;;;4.45;;
21959;SDS011;11144;43.030;25.108;2023-04-24T04:07:17;8.82;;;4.30;;
21959;SDS011;11144;43.030;25.108;2023-04-24T04:08:50;6.82;;;3.97;;
21959;SDS011;11144;43.030;25.108;2023-04-24T04:10:24;9.80;;;4.50;;
21959;SDS011;11144;43.030;25.108;2023-04-24T04:11:57;10.15;;;4.93;;
21959;SDS011;11144;43.030;25.108;2023-04-24T04:13:33;9.40;;;5.15;;
21959;SDS011;11144;43.030;25.108;2023-04-24T04:15:06;17.52;;;7.60;;
21959;SDS011;11144;43.030;25.108;2023-04-24T04:16:41;18.35;;;8.88;;
21959;SDS011;11144;43.030;25.108;2023-04-24T04:18:14;15.88;;;8.77;;
21959;SDS011;11144;43.030;25.108;2023-04-24T04:19:48;16.27;;;9.32;;
21959;SDS011;11144;43.030;25.108;2023-04-24T04:21:21;21.92;;;11.75;;
21959;SDS011;11144;43.030;25.108;2023-04-24T04:23:00;13.40;;;7.43;;
21959;SDS011;11144;43.030;25.108;2023-04-24T04:24:44;24.52;;;12.23;;
21959;SDS011;11144;43.030;25.108;2023-04-24T04:26:19;18.90;;;9.82;;
21959;SDS011;11144;43.030;25.108;2023-04-24T04:28:22;19.05;;;9.07;;
21959;SDS011;11144;43.030;25.108;2023-04-24T04:29:56;16.60;;;8.60;;
21959;SDS011;11144;43.030;25.108;2023-04-24T04:31:31;18.15;;;9.23;;
21959;SDS011;11144;43.030;25.108;2023-04-24T04:33:10;17.80;;;8.30;;
21959;SDS011;11144;43.030;25.108;2023-04-24T04:34:43;17.83;;;8.93;;
21959;SDS011;11144;43.030;25.108;2023-04-24T04:36:17;17.70;;;9.30;;
21959;SDS011;11144;43.030;25.108;2023-04-24T04:37:55;13.35;;;7.65;;
21959;SDS011;11144;43.030;25.108;2023-04-24T04:39:50;10.07;;;6.40;;
21959;SDS011;11144;43.030;25.108;2023-04-24T04:41:28;14.02;;;6.88;;
21959;SDS011;11144;43.030;25.108;2023-04-24T04:43:03;11.23;;;6.32;;
21959;SDS011;11144;43.030;25.108;2023-04-24T04:44:45;13.57;;;6.65;;
21959;SDS011;11144;43.030;25.108;2023-04-24T04:46:24;10.82;;;6.03;;
21959;SDS011;11144;43.030;25.108;2023-04-24T04:48:04;10.90;;;6.53;;
21959;SDS011;11144;43.030;25.108;2023-04-24T04:49:42;14.98;;;6.95;;
21959;SDS011;11144;43.030;25.108;2023-04-24T04:51:25;14.10;;;6.85;;
21959;SDS011;11144;43.030;25.108;2023-04-24T04:52:59;12.55;;;6.53;;
21959;SDS011;11144;43.030;25.108;2023-04-24T04:54:37;11.13;;;6.80;;
21959;SDS011;11144;43.030;25.108;2023-04-24T04:56:10;12.38;;;6.20;;
21959;SDS011;11144;43.030;25.108;2023-04-24T04:57:45;13.10;;;7.07;;
21959;SDS011;11144;43.030;25.108;2023-04-24T04:59:19;14.30;;;6.70;;
21959;SDS011;11144;43.030;25.108;2023-04-24T05:00:56;15.07;;;7.32;;
21959;SDS011;11144;43.030;25.108;2023-04-24T05:02:34;14.70;;;6.32;;
21959;SDS011;11144;43.030;25.108;2023-04-24T05:04:08;12.45;;;6.93;;
21959;SDS011;11144;43.030;25.108;2023-04-24T05:05:43;14.48;;;6.88;;
21959;SDS011;11144;43.030;25.108;2023-04-24T05:07:19;13.45;;;6.25;;
21959;SDS011;11144;43.030;25.108;2023-04-24T05:08:55;11.48;;;6.68;;
21959;SDS011;11144;43.030;25.108;2023-04-24T05:10:39;11.32;;;6.32;;
21959;SDS011;11144;43.030;25.108;2023-04-24T05:12:13;13.82;;;6.65;;
21959;SDS011;11144;43.030;25.108;2023-04-24T05:13:54;12.32;;;7.18;;
21959;SDS011;11144;43.030;25.108;2023-04-24T05:15:36;11.63;;;6.50;;
21959;SDS011;11144;43.030;25.108;2023-04-24T05:17:09;9.50;;;4.93;;
21959;SDS011;11144;43.030;25.108;2023-04-24T05:18:44;6.63;;;4.65;;
21959;SDS011;11144;43.030;25.108;2023-04-24T05:20:20;5.53;;;3.63;;
21959;SDS011;11144;43.030;25.108;2023-04-24T05:21:55;10.93;;;5.80;;
21959;SDS011;11144;43.030;25.108;2023-04-24T05:23:29;10.57;;;6.47;;
21959;SDS011;11144;43.030;25.108;2023-04-24T05:25:03;11.45;;;6.35;;
21959;SDS011;11144;43.030;25.108;2023-04-24T05:26:52;10.02;;;6.75;;
21959;SDS011;11144;43.030;25.108;2023-04-24T05:28:29;13.70;;;7.60;;
21959;SDS011;11144;43.030;25.108;2023-04-24T05:30:10;12.57;;;6.70;;
21959;SDS011;11144;43.030;25.108;2023-04-24T05:31:44;10.95;;;6.82;;
21959;SDS011;11144;43.030;25.108;2023-04-24T05:33:18;16.20;;;7.65;;
21959;SDS011;11144;43.030;25.108;2023-04-24T05:34:51;8.95;;;6.05;;
21959;SDS011;11144;43.030;25.108;2023-04-24T05:36:24;12.10;;;6.55;;
21959;SDS011;11144;43.030;25.108;2023-04-24T05:38:00;10.77;;;6.20;;
21959;SDS011;11144;43.030;25.108;2023-04-24T05:39:33;9.25;;;5.75;;
21959;SDS011;11144;43.030;25.108;2023-04-24T05:41:07;10.18;;;6.30;;
21959;SDS011;11144;43.030;25.108;2023-04-24T05:42:40;13.50;;;6.28;;
21959;SDS011;11144;43.030;25.108;2023-04-24T05:44:13;8.88;;;6.10;;
21959;SDS011;11144;43.030;25.108;2023-04-24T05:45:47;7.82;;;5.90;;
21959;SDS011;11144;43.030;25.108;2023-04-24T05:47:22;15.00;;;5.88;;
21959;SDS011;11144;43.030;25.108;2023-04-24T05:48:56;10.27;;;5.55;;
21959;SDS011;11144;43.030;25.108;2023-04-24T05:50:29;12.85;;;6.20;;
21959;SDS011;11144;43.030;25.108;2023-04-24T05:52:06;11.05;;;5.88;;
21959;SDS011;11144;43.030;25.108;2023-04-24T05:53:43;9.48;;;5.88;;
21959;SDS011;11144;43.030;25.108;2023-04-24T05:55:17;9.63;;;6.38;;
21959;SDS011;11144;43.030;25.108;2023-04-24T05:56:51;10.10;;;5.60;;
21959;SDS011;11144;43.030;25.108;2023-04-24T05:58:45;8.95;;;5.25;;
21959;SDS011;11144;43.030;25.108;2023-04-24T06:00:19;9.15;;;4.70;;
21959;SDS011;11144;43.030;25.108;2023-04-24T06:02:02;6.47;;;4.43;;
21959;SDS011;11144;43.030;25.108;2023-04-24T06:03:35;7.30;;;4.00;;
21959;SDS011;11144;43.030;25.108;2023-04-24T06:05:09;8.20;;;4.78;;
21959;SDS011;11144;43.030;25.108;2023-04-24T06:06:43;9.20;;;5.20;;
21959;SDS011;11144;43.030;25.108;2023-04-24T06:08:16;12.35;;;5.72;;
21959;SDS011;11144;43.030;25.108;2023-04-24T06:09:52;8.20;;;5.53;;
21959;SDS011;11144;43.030;25.108;2023-04-24T06:11:26;11.27;;;6.13;;
21959;SDS011;11144;43.030;25.108;2023-04-24T06:13:00;11.48;;;5.30;;
21959;SDS011;11144;43.030;25.108;2023-04-24T06:14:35;15.52;;;8.30;;
21959;SDS011;11144;43.030;25.108;2023-04-24T06:16:24;13.23;;;7.78;;
21959;SDS011;11144;43.030;25.108;2023-04-24T06:18:04;16.73;;;10.25;;
21959;SDS011;11144;43.030;25.108;2023-04-24T06:19:38;12.07;;;6.90;;
21959;SDS011;11144;43.030;25.108;2023-04-24T06:21:12;9.77;;;6.10;;
21959;SDS011;11144;43.030;25.108;2023-04-24T06:22:46;13.45;;;5.38;;
21959;SDS011;11144;43.030;25.108;2023-04-24T06:24:19;12.90;;;6.30;;
21959;SDS011;11144;43.030;25.108;2023-04-24T06:25:54;6.63;;;4.40;;
21959;SDS011;11144;43.030;25.108;2023-04-24T06:27:27;8.77;;;4.70;;
21959;SDS011;11144;43.030;25.108;2023-04-24T06:29:01;7.88;;;4.50;;
21959;SDS011;11144;43.030;25.108;2023-04-24T06:30:34;12.57;;;6.32;;
21959;SDS011;11144;43.030;25.108;2023-04-24T06:32:08;7.85;;;5.05;;
21959;SDS011;11144;43.030;25.108;2023-04-24T06:33:41;10.30;;;5.85;;
21959;SDS011;11144;43.030;25.108;2023-04-24T06:35:15;7.10;;;4.97;;
21959;SDS011;11144;43.030;25.108;2023-04-24T06:36:48;9.30;;;5.90;;
21959;SDS011;11144;43.030;25.108;2023-04-24T06:38:21;14.48;;;6.82;;
21959;SDS011;11144;43.030;25.108;2023-04-24T06:39:55;11.85;;;7.43;;
21959;SDS011;11144;43.030;25.108;2023-04-24T06:41:29;10.93;;;5.75;;
21959;SDS011;11144;43.030;25.108;2023-04-24T06:43:03;12.65;;;5.60;;
21959;SDS011;11144;43.030;25.108;2023-04-24T06:44:37;10.65;;;6.53;;
21959;SDS011;11144;43.030;25.108;2023-04-24T06:46:13;8.98;;;5.85;;
21959;SDS011;11144;43.030;25.108;2023-04-24T06:47:46;9.65;;;6.25;;
21959;SDS011;11144;43.030;25.108;2023-04-24T06:49:19;9.00;;;5.97;;
21959;SDS011;11144;43.030;25.108;2023-04-24T06:50:53;11.85;;;5.85;;
21959;SDS011;11144;43.030;25.108;2023-04-24T06:52:26;13.70;;;7.75;;
21959;SDS011;11144;43.030;25.108;2023-04-24T06:53:59;15.82;;;7.82;;
21959;SDS011;11144;43.030;25.108;2023-04-24T06:55:33;12.15;;;7.47;;
21959;SDS011;11144;43.030;25.108;2023-04-24T06:57:09;15.73;;;8.13;;
21959;SDS011;11144;43.030;25.108;2023-04-24T06:58:42;11.48;;;7.13;;
21959;SDS011;11144;43.030;25.108;2023-04-24T07:00:16;11.18;;;6.43;;
21959;SDS011;11144;43.030;25.108;2023-04-24T07:01:50;8.00;;;5.97;;
21959;SDS011;11144;43.030;25.108;2023-04-24T07:03:26;10.30;;;5.70;;
21959;SDS011;11144;43.030;25.108;2023-04-24T07:04:59;6.80;;;4.28;;
21959;SDS011;11144;43.030;25.108;2023-04-24T07:06:32;9.43;;;5.28;;
21959;SDS011;11144;43.030;25.108;2023-04-24T07:08:06;6.78;;;4.60;;
21959;SDS011;11144;43.030;25.108;2023-04-24T07:09:43;9.93;;;5.03;;
21959;SDS011;11144;43.030;25.108;2023-04-24T07:11:17;7.50;;;4.95;;
21959;SDS011;11144;43.030;25.108;2023-04-24T07:12:51;8.85;;;5.82;;
21959;SDS011;11144;43.030;25.108;2023-04-24T07:14:25;9.35;;;5.50;;
21959;SDS011;11144;43.030;25.108;2023-04-24T07:15:59;9.68;;;5.18;;
21959;SDS011;11144;43.030;25.108;2023-04-24T07:17:32;8.60;;;5.43;;
21959;SDS011;11144;43.030;25.108;2023-04-24T07:19:05;7.10;;;5.28;;
21959;SDS011;11144;43.030;25.108;2023-04-24T07:20:38;11.73;;;5.50;;
21959;SDS011;11144;43.030;25.108;2023-04-24T07:22:12;10.57;;;5.15;;
21959;SDS011;11144;43.030;25.108;2023-04-24T07:23:48;9.25;;;6.20;;
21959;SDS011;11144;43.030;25.108;2023-04-24T07:25:21;11.57;;;5.80;;
21959;SDS011;11144;43.030;25.108;2023-04-24T07:26:54;9.32;;;6.15;;
21959;SDS011;11144;43.030;25.108;2023-04-24T07:28:29;10.23;;;6.93;;
21959;SDS011;11144;43.030;25.108;2023-04-24T07:30:03;10.52;;;6.53;;
21959;SDS011;11144;43.030;25.108;2023-04-24T07:31:38;13.13;;;7.85;;
21959;SDS011;11144;43.030;25.108;2023-04-24T07:33:12;27.50;;;13.20;;
21959;SDS011;11144;43.030;25.108;2023-04-24T07:34:46;23.50;;;12.93;;
21959;SDS011;11144;43.030;25.108;2023-04-24T07:36:19;21.98;;;12.65;;
21959;SDS011;11144;43.030;25.108;2023-04-24T07:37:52;13.80;;;8.90;;
21959;SDS011;11144;43.030;25.108;2023-04-24T07:39:26;14.98;;;8.07;;
21959;SDS011;11144;43.030;25.108;2023-04-24T07:41:00;13.40;;;8.27;;
21959;SDS011;11144;43.030;25.108;2023-04-24T07:42:34;14.63;;;8.23;;
21959;SDS011;11144;43.030;25.108;2023-04-24T07:44:09;13.85;;;8.13;;
21959;SDS011;11144;43.030;25.108;2023-04-24T07:45:43;14.77;;;8.75;;
21959;SDS011;11144;43.030;25.108;2023-04-24T07:47:16;16.85;;;9.50;;
21959;SDS011;11144;43.030;25.108;2023-04-24T07:48:50;20.05;;;9.73;;
21959;SDS011;11144;43.030;25.108;2023-04-24T07:50:42;15.75;;;9.00;;
21959;SDS011;11144;43.030;25.108;2023-04-24T07:52:16;15.77;;;9.20;;
21959;SDS011;11144;43.030;25.108;2023-04-24T07:53:49;18.15;;;9.65;;
21959;SDS011;11144;43.030;25.108;2023-04-24T07:55:22;17.23;;;9.85;;
21959;SDS011;11144;43.030;25.108;2023-04-24T07:56:58;21.08;;;10.90;;
21959;SDS011;11144;43.030;25.108;2023-04-24T07:58:33;13.07;;;8.15;;
21959;SDS011;11144;43.030;25.108;2023-04-24T08:00:08;16.25;;;9.55;;
21959;SDS011;11144;43.030;25.108;2023-04-24T08:01:43;15.52;;;8.93;;
21959;SDS011;11144;43.030;25.108;2023-04-24T08:03:17;16.00;;;9.38;;
21959;SDS011;11144;43.030;25.108;2023-04-24T08:04:51;19.20;;;10.85;;
21959;SDS011;11144;43.030;25.108;2023-04-24T08:06:26;19.35;;;9.88;;
21959;SDS011;11144;43.030;25.108;2023-04-24T08:08:02;15.15;;;9.90;;
21959;SDS011;11144;43.030;25.108;2023-04-24T08:09:35;15.75;;;10.18;;
21959;SDS011;11144;43.030;25.108;2023-04-24T08:11:09;18.80;;;10.18;;
21959;SDS011;11144;43.030;25.108;2023-04-24T08:12:43;16.38;;;9.32;;
21959;SDS011;11144;43.030;25.108;2023-04-24T08:14:16;16.27;;;9.45;;
21959;SDS011;11144;43.030;25.108;2023-04-24T08:15:51;20.73;;;12.23;;
21959;SDS011;11144;43.030;25.108;2023-04-24T08:17:25;13.32;;;7.40;;
21959;SDS011;11144;43.030;25.108;2023-04-24T08:18:58;14.68;;;9.07;;
21959;SDS011;11144;43.030;25.108;2023-04-24T08:20:32;13.43;;;8.52;;
21959;SDS011;11144;43.030;25.108;2023-04-24T08:22:05;13.27;;;8.52;;
21959;SDS011;11144;43.030;25.108;2023-04-24T08:23:38;12.70;;;7.38;;
21959;SDS011;11144;43.030;25.108;2023-04-24T08:25:12;11.68;;;6.60;;
21959;SDS011;11144;43.030;25.108;2023-04-24T08:26:45;9.88;;;5.80;;
21959;SDS011;11144;43.030;25.108;2023-04-24T08:28:21;8.20;;;5.47;;
21959;SDS011;11144;43.030;25.108;2023-04-24T08:29:55;8.95;;;5.30;;
21959;SDS011;11144;43.030;25.108;2023-04-24T08:31:31;7.25;;;5.20;;
21959;SDS011;11144;43.030;25.108;2023-04-24T08:33:05;7.55;;;4.68;;
21959;SDS011;11144;43.030;25.108;2023-04-24T08:34:38;6.93;;;4.03;;
21959;SDS011;11144;43.030;25.108;2023-04-24T08:36:12;9.27;;;4.75;;
21959;SDS011;11144;43.030;25.108;2023-04-24T08:37:45;6.18;;;4.13;;
21959;SDS011;11144;43.030;25.108;2023-04-24T08:39:19;7.63;;;4.55;;
21959;SDS011;11144;43.030;25.108;2023-04-24T08:40:52;6.55;;;4.20;;
21959;SDS011;11144;43.030;25.108;2023-04-24T08:42:26;8.20;;;4.22;;
21959;SDS011;11144;43.030;25.108;2023-04-24T08:44:03;6.50;;;4.05;;
21959;SDS011;11144;43.030;25.108;2023-04-24T08:45:39;6.38;;;4.15;;
21959;SDS011;11144;43.030;25.108;2023-04-24T08:47:14;4.18;;;3.63;;
21959;SDS011;11144;43.030;25.108;2023-04-24T08:48:48;6.15;;;4.70;;
21959;SDS011;11144;43.030;25.108;2023-04-24T08:50:24;6.80;;;4.03;;
21959;SDS011;11144;43.030;25.108;2023-04-24T08:51:57;8.73;;;4.70;;
21959;SDS011;11144;43.030;25.108;2023-04-24T08:53:32;9.00;;;5.28;;
21959;SDS011;11144;43.030;25.108;2023-04-24T08:55:06;8.82;;;5.90;;
21959;SDS011;11144;43.030;25.108;2023-04-24T08:56:40;9.73;;;5.90;;
21959;SDS011;11144;43.030;25.108;2023-04-24T08:58:16;7.90;;;5.07;;
21959;SDS011;11144;43.030;25.108;2023-04-24T08:59:50;7.38;;;5.35;;
21959;SDS011;11144;43.030;25.108;2023-04-24T09:01:25;8.00;;;5.32;;
21959;SDS011;11144;43.030;25.108;2023-04-24T09:03:02;7.10;;;5.03;;
21959;SDS011;11144;43.030;25.108;2023-04-24T09:04:37;6.20;;;4.32;;
21959;SDS011;11144;43.030;25.108;2023-04-24T09:06:13;5.63;;;3.95;;
21959;SDS011;11144;43.030;25.108;2023-04-24T09:07:49;8.45;;;4.43;;
21959;SDS011;11144;43.030;25.108;2023-04-24T09:09:26;5.72;;;4.55;;
21959;SDS011;11144;43.030;25.108;2023-04-24T09:11:03;6.20;;;4.60;;
21959;SDS011;11144;43.030;25.108;2023-04-24T09:12:36;8.10;;;4.40;;
21959;SDS011;11144;43.030;25.108;2023-04-24T09:14:10;7.38;;;4.90;;
21959;SDS011;11144;43.030;25.108;2023-04-24T09:15:43;7.10;;;4.75;;
21959;SDS011;11144;43.030;25.108;2023-04-24T09:17:16;5.38;;;4.03;;
21959;SDS011;11144;43.030;25.108;2023-04-24T09:18:51;9.13;;;4.55;;
21959;SDS011;11144;43.030;25.108;2023-04-24T09:20:25;6.05;;;4.25;;